Weather at Skive Airport

Public forecast

Using degrees Celsius for public forecast. Weather courtesy of forecast.io.

Closest aviation weather report (METAR) to Skive Airport

Closest report is Karup Airport, 15.3 nm (28.3 km) S. Retrieved 2021/01/19 04:20 UTC (13 minutes ago):

EKKA 190420Z AUTO 18007KT 9999 -RA SCT004/// BKN016/// 03/02 Q1003 R27L/190095

Closest aviation forecast (TAF) to Skive Airport

Closest forecast is Karup Airport, 15.3 nm (28.3 km) S. Retrieved 2021-01-19 03:31 UTC (1 hour ago):

TAF EKKA 190224Z 1903/2003 19005KT 9999 FEW004 BKN020 TEMPO 1903/1909 1200 -SHRA MIFG BKN003 SCT020TCU BECMG 1909/1911 16005KT 0600 FG -RA BKN002 TEMPO 1911/2001 2000 BR RASN BKN004 BECMG 2001/2003 20010KT 3000 RA BKN006